Time;durP1;ratioP1;P1;durP2;ratioP2;P2;SDS_P1;SDS_P2;PMS_P1;PMS_P2;Temp;Humidity;BMP_temperature;BMP_pressure;BME280_temperature;BME280_humidity;BME280_pressure;Samples;Min_cycle;Max_cycle;Signal;HPM_P1;HPM_P2
2021/01/30 00:01:46;;;;;;;10.03;7.83;;;0.40;99.90;;;;;;5094709;28;20223;-81
2021/01/30 00:04:13;;;;;;;8.30;6.87;;;0.40;99.90;;;;;;5091372;28;20586;-80
2021/01/30 00:06:39;;;;;;;10.57;7.47;;;0.40;99.90;;;;;;5106824;28;20202;-79
2021/01/30 00:09:05;;;;;;;7.43;6.60;;;0.40;99.90;;;;;;5111214;28;20233;-79
2021/01/30 00:11:32;;;;;;;7.87;6.13;;;0.50;99.90;;;;;;5111286;27;20217;-79
2021/01/30 00:13:59;;;;;;;8.63;6.73;;;0.40;99.90;;;;;;5120921;27;20193;-79
2021/01/30 00:16:25;;;;;;;10.33;7.67;;;0.40;99.90;;;;;;5118411;27;20198;-79
2021/01/30 00:18:51;;;;;;;9.97;8.37;;;0.40;99.90;;;;;;5110506;28;20214;-80
2021/01/30 00:21:17;;;;;;;9.33;7.87;;;0.30;99.90;;;;;;5110739;28;20225;-78
2021/01/30 00:23:43;;;;;;;7.60;6.80;;;0.30;99.90;;;;;;5111404;28;20206;-79
2021/01/30 00:26:10;;;;;;;8.33;7.27;;;0.30;99.90;;;;;;5111331;27;20214;-79
2021/01/30 00:28:36;;;;;;;9.43;6.90;;;0.30;99.90;;;;;;5111142;28;20233;-79
2021/01/30 00:31:03;;;;;;;9.90;6.77;;;0.30;99.90;;;;;;5111104;28;20691;-79
2021/01/30 00:33:29;;;;;;;8.57;7.00;;;0.30;99.90;;;;;;5110816;28;20213;-79
2021/01/30 00:35:55;;;;;;;7.93;6.73;;;0.30;99.90;;;;;;5090867;28;20217;-79
2021/01/30 00:38:22;;;;;;;7.37;6.67;;;0.30;99.90;;;;;;5090683;28;20214;-79
2021/01/30 00:40:48;;;;;;;10.20;7.57;;;0.30;99.90;;;;;;5109112;28;20367;-79
2021/01/30 00:43:14;;;;;;;7.97;7.17;;;0.30;99.90;;;;;;5111154;28;20206;-78
2021/01/30 00:45:41;;;;;;;8.87;7.23;;;0.30;99.90;;;;;;5110819;28;20198;-78
2021/01/30 00:48:08;;;;;;;8.70;7.73;;;0.30;99.90;;;;;;5110832;28;20202;-78
2021/01/30 00:50:34;;;;;;;8.03;7.27;;;0.30;99.90;;;;;;5110672;28;20214;-78
2021/01/30 00:53:01;;;;;;;9.30;7.37;;;0.30;99.90;;;;;;5111017;28;20205;-79
2021/01/30 00:55:27;;;;;;;9.97;7.17;;;0.20;99.90;;;;;;5110928;28;20251;-78
2021/01/30 00:57:53;;;;;;;10.27;7.50;;;0.20;99.90;;;;;;5110533;28;20237;-78
2021/01/30 01:00:22;;;;;;;8.33;7.27;;;0.30;99.90;;;;;;5110595;28;20206;-78
2021/01/30 01:02:49;;;;;;;10.40;7.73;;;0.20;99.90;;;;;;5110746;28;20234;-78
2021/01/30 01:05:17;;;;;;;9.57;7.80;;;0.30;99.90;;;;;;5110372;28;20739;-78
2021/01/30 01:07:44;;;;;;;8.60;7.43;;;0.20;99.90;;;;;;5110631;28;20659;-77
2021/01/30 01:10:12;;;;;;;8.93;7.70;;;0.20;99.90;;;;;;5110323;28;20237;-77
2021/01/30 01:12:38;;;;;;;10.93;7.57;;;0.20;99.90;;;;;;5110231;28;20205;-77
2021/01/30 01:15:07;;;;;;;9.10;8.20;;;0.20;99.90;;;;;;5110597;28;20262;-78
2021/01/30 01:17:33;;;;;;;9.70;7.10;;;0.10;99.90;;;;;;5110194;28;20210;-77
2021/01/30 01:20:00;;;;;;;9.30;7.80;;;0.10;99.90;;;;;;5109832;28;20253;-77
2021/01/30 01:22:27;;;;;;;8.27;6.80;;;0.10;99.90;;;;;;5110147;28;20210;-79
2021/01/30 01:24:53;;;;;;;8.00;6.70;;;0.10;99.90;;;;;;5110514;28;20214;-78
2021/01/30 01:27:19;;;;;;;9.13;6.80;;;0.10;99.90;;;;;;5109958;28;20570;-77
2021/01/30 01:29:47;;;;;;;8.40;6.23;;;0.10;99.90;;;;;;5109790;28;20234;-78
2021/01/30 01:32:13;;;;;;;6.27;5.67;;;0.10;99.90;;;;;;5110227;28;20209;-77
2021/01/30 01:34:42;;;;;;;6.17;5.50;;;0.10;99.90;;;;;;5109725;28;20217;-78
2021/01/30 01:37:09;;;;;;;7.03;5.67;;;0.00;99.90;;;;;;5110229;28;20205;-78
2021/01/30 01:39:36;;;;;;;6.93;5.50;;;0.10;99.90;;;;;;5110000;28;20213;-78
2021/01/30 01:42:11;;;;;;;6.77;5.50;;;0.00;99.90;;;;;;5110106;28;20242;-78
2021/01/30 01:44:38;;;;;;;6.77;5.83;;;0.00;99.90;;;;;;5109650;28;20198;-78
2021/01/30 01:47:06;;;;;;;8.20;6.57;;;0.10;99.90;;;;;;5109840;28;20217;-78
2021/01/30 01:49:35;;;;;;;8.13;6.43;;;0.10;99.90;;;;;;5109039;28;20233;-78
2021/01/30 01:52:16;;;;;;;6.73;5.73;;;0.10;99.90;;;;;;5109555;28;20530;-78
2021/01/30 01:54:44;;;;;;;7.07;5.70;;;0.10;99.90;;;;;;5109243;28;20671;-78
2021/01/30 01:57:14;;;;;;;7.40;6.13;;;0.10;99.90;;;;;;5109670;28;20201;-77
2021/01/30 01:59:46;;;;;;;7.30;6.23;;;0.10;99.90;;;;;;5108921;28;20244;-78
2021/01/30 02:02:13;;;;;;;7.20;6.10;;;0.00;99.90;;;;;;5109313;28;20729;-78
2021/01/30 02:04:39;;;;;;;9.13;6.23;;;0.10;99.90;;;;;;5109323;28;20217;-78
2021/01/30 02:07:06;;;;;;;6.87;6.17;;;0.00;99.90;;;;;;5109594;28;20209;-78
2021/01/30 02:09:33;;;;;;;7.30;6.37;;;0.00;99.90;;;;;;5109095;28;20225;-77
2021/01/30 02:12:04;;;;;;;8.23;6.23;;;0.00;99.90;;;;;;5109279;27;20204;-78
2021/01/30 02:14:35;;;;;;;6.63;6.00;;;0.00;99.90;;;;;;5109098;28;20204;-77
2021/01/30 02:17:11;;;;;;;7.93;6.03;;;-0.10;99.90;;;;;;5109406;28;20194;-78
2021/01/30 02:20:17;;;;;;;6.73;5.97;;;0.00;99.90;;;;;;5108860;28;20198;-79
2021/01/30 02:23:11;;;;;;;7.00;6.20;;;0.00;99.90;;;;;;5109245;28;20202;-78
2021/01/30 02:26:09;;;;;;;9.27;6.70;;;0.00;99.90;;;;;;5109490;28;20205;-78
2021/01/30 02:28:44;;;;;;;6.30;5.80;;;0.00;99.90;;;;;;5109083;28;20239;-78
2021/01/30 02:31:34;;;;;;;6.40;5.80;;;0.00;99.90;;;;;;5109173;28;20190;-78
2021/01/30 02:34:36;;;;;;;7.33;5.50;;;0.00;99.90;;;;;;5109128;28;20198;-78
2021/01/30 02:37:08;;;;;;;5.53;5.03;;;0.00;99.90;;;;;;5108890;28;20644;-79
2021/01/30 02:39:38;;;;;;;5.40;4.90;;;0.00;99.90;;;;;;5108588;28;20719;-79
2021/01/30 02:42:11;;;;;;;5.73;5.13;;;0.00;99.90;;;;;;5108390;28;20239;-79
2021/01/30 02:44:41;;;;;;;6.17;5.57;;;-0.10;99.90;;;;;;5108916;28;20197;-79
2021/01/30 02:47:12;;;;;;;7.50;5.27;;;-0.10;99.90;;;;;;5108801;28;20599;-79
2021/01/30 02:49:43;;;;;;;5.87;5.27;;;-0.10;99.90;;;;;;5108446;28;20601;-79
2021/01/30 02:52:15;;;;;;;5.93;5.43;;;0.00;99.90;;;;;;5109015;28;20201;-79
2021/01/30 02:54:42;;;;;;;6.30;5.70;;;-0.10;99.90;;;;;;5108850;28;20194;-79
2021/01/30 02:57:11;;;;;;;5.63;5.13;;;0.00;99.90;;;;;;5109291;28;20213;-78
2021/01/30 02:59:44;;;;;;;6.70;6.03;;;0.00;99.90;;;;;;5108385;28;20234;-79
2021/01/30 03:02:11;;;;;;;5.93;5.27;;;0.00;99.90;;;;;;5108706;28;20232;-79
2021/01/30 03:04:37;;;;;;;5.97;5.37;;;0.00;99.90;;;;;;5108344;28;20948;-79
2021/01/30 03:07:30;;;;;;;6.93;5.80;;;0.00;99.90;;;;;;5108881;28;20217;-79
2021/01/30 03:10:04;;;;;;;6.10;5.40;;;0.00;99.90;;;;;;5108791;28;20233;-78
2021/01/30 03:12:38;;;;;;;6.43;5.30;;;0.00;99.90;;;;;;5108571;28;20186;-79
2021/01/30 03:15:12;;;;;;;6.40;5.80;;;0.10;99.90;;;;;;5108889;28;20278;-79
2021/01/30 03:17:40;;;;;;;6.40;5.80;;;0.10;99.90;;;;;;5108611;28;20652;-79
2021/01/30 03:20:07;;;;;;;6.63;5.70;;;0.10;99.90;;;;;;5108607;28;21038;-79
2021/01/30 03:22:38;;;;;;;6.17;5.57;;;0.10;99.90;;;;;;5108608;28;20263;-80
2021/01/30 03:25:05;;;;;;;7.93;5.40;;;0.00;99.90;;;;;;5108567;28;20205;-79
2021/01/30 03:27:34;;;;;;;6.00;4.87;;;0.10;99.90;;;;;;5108688;28;20209;-80
2021/01/30 03:30:01;;;;;;;5.63;5.13;;;0.10;99.90;;;;;;5108465;28;20231;-79
2021/01/30 03:32:29;;;;;;;5.80;5.23;;;0.10;99.90;;;;;;5108331;28;20212;-79
2021/01/30 03:34:56;;;;;;;6.10;5.10;;;0.10;99.90;;;;;;5108674;28;20214;-79
2021/01/30 03:37:23;;;;;;;5.67;5.10;;;0.10;99.90;;;;;;5108803;28;20202;-78
2021/01/30 03:39:50;;;;;;;6.67;5.30;;;0.10;99.90;;;;;;5108445;28;20206;-78
2021/01/30 03:42:17;;;;;;;6.73;5.53;;;0.10;99.90;;;;;;5108570;28;20212;-78
2021/01/30 03:44:43;;;;;;;7.07;5.53;;;0.10;99.90;;;;;;5111419;28;20212;-79
2021/01/30 03:47:10;;;;;;;6.43;5.20;;;0.10;99.90;;;;;;5112187;28;20212;-79
2021/01/30 03:49:36;;;;;;;6.73;5.77;;;0.10;99.90;;;;;;5112186;28;20226;-79
2021/01/30 03:52:03;;;;;;;6.47;5.10;;;0.10;99.90;;;;;;5112402;28;20959;-79
2021/01/30 03:54:29;;;;;;;5.93;5.27;;;0.10;99.90;;;;;;5111574;28;20882;-79
2021/01/30 03:56:56;;;;;;;6.50;5.87;;;0.10;99.90;;;;;;5112197;28;20205;-79
2021/01/30 03:59:23;;;;;;;6.70;5.73;;;0.10;99.90;;;;;;5111497;28;20286;-79
2021/01/30 04:01:49;;;;;;;7.43;5.60;;;0.10;99.90;;;;;;5111579;27;20253;-79
2021/01/30 04:04:17;;;;;;;7.63;6.03;;;0.10;99.90;;;;;;5111830;28;20202;-79
2021/01/30 04:06:46;;;;;;;6.63;5.90;;;0.10;99.90;;;;;;5111586;28;20209;-77
2021/01/30 04:09:13;;;;;;;7.40;6.37;;;0.10;99.90;;;;;;5111320;28;20604;-77
2021/01/30 04:11:40;;;;;;;7.33;6.20;;;0.00;99.90;;;;;;5111197;28;20230;-78
2021/01/30 04:14:08;;;;;;;7.63;6.83;;;0.10;99.90;;;;;;5111616;28;20208;-80
2021/01/30 04:16:34;;;;;;;7.93;7.13;;;0.00;99.90;;;;;;5111601;28;20214;-80
2021/01/30 04:19:00;;;;;;;7.37;6.67;;;0.00;99.90;;;;;;5111583;28;20235;-81
2021/01/30 04:21:27;;;;;;;7.83;7.00;;;0.00;99.90;;;;;;5111567;28;20209;-80
2021/01/30 04:23:53;;;;;;;7.87;7.07;;;0.10;99.90;;;;;;5111401;28;20222;-80
2021/01/30 04:26:20;;;;;;;8.00;7.13;;;0.10;99.90;;;;;;5111504;28;20236;-80
2021/01/30 04:28:48;;;;;;;7.57;6.73;;;0.00;99.90;;;;;;5111364;28;20229;-80
2021/01/30 04:31:15;;;;;;;8.47;6.90;;;0.00;99.90;;;;;;5111322;28;20217;-79
2021/01/30 04:33:41;;;;;;;8.07;7.00;;;0.00;99.90;;;;;;5111324;27;20210;-79
2021/01/30 04:36:08;;;;;;;8.10;7.23;;;0.10;99.90;;;;;;5111249;28;20206;-80
2021/01/30 04:38:34;;;;;;;7.10;6.40;;;0.10;99.90;;;;;;5110929;28;20568;-79
2021/01/30 04:41:05;;;;;;;7.90;6.67;;;0.10;99.90;;;;;;5111143;27;20209;-78
2021/01/30 04:43:37;;;;;;;7.73;6.83;;;0.10;99.90;;;;;;5111324;28;20194;-78
2021/01/30 04:46:10;;;;;;;7.47;6.73;;;0.10;99.90;;;;;;5111225;27;20719;-79
2021/01/30 04:48:57;;;;;;;8.63;7.33;;;0.10;99.90;;;;;;5110916;28;20217;-78
2021/01/30 04:51:31;;;;;;;9.03;7.07;;;0.10;99.90;;;;;;5111163;28;20190;-78
2021/01/30 04:54:28;;;;;;;12.03;8.30;;;0.10;99.90;;;;;;5110845;27;20564;-78
2021/01/30 04:57:07;;;;;;;11.20;7.63;;;0.10;99.90;;;;;;5110139;28;20226;-79
2021/01/30 04:59:41;;;;;;;10.83;8.37;;;0.10;99.90;;;;;;5110352;28;20278;-79
2021/01/30 05:02:16;;;;;;;10.43;7.97;;;0.10;99.90;;;;;;5110567;28;20221;-78
2021/01/30 05:04:47;;;;;;;9.00;7.63;;;0.10;99.90;;;;;;5110649;28;20193;-78
2021/01/30 05:07:25;;;;;;;9.60;8.17;;;0.10;99.90;;;;;;5110750;28;20202;-78
2021/01/30 05:09:55;;;;;;;10.87;8.13;;;0.10;99.90;;;;;;5110159;28;20667;-80
2021/01/30 05:12:27;;;;;;;14.97;8.90;;;0.10;99.90;;;;;;5110371;28;20294;-80
2021/01/30 05:15:00;;;;;;;12.03;8.77;;;0.10;99.90;;;;;;5110201;28;20248;-80
2021/01/30 05:17:29;;;;;;;12.40;9.00;;;0.00;99.90;;;;;;5110349;28;20674;-81
2021/01/30 05:20:02;;;;;;;13.30;9.27;;;0.10;99.90;;;;;;5110302;28;20201;-80
2021/01/30 05:22:34;;;;;;;14.40;10.00;;;0.10;99.90;;;;;;5110482;28;20191;-79
2021/01/30 05:25:01;;;;;;;12.33;9.17;;;0.10;99.90;;;;;;5110411;28;20193;-80
2021/01/30 05:27:42;;;;;;;11.50;8.60;;;0.10;99.90;;;;;;5110207;28;20232;-79
2021/01/30 05:30:13;;;;;;;9.97;8.00;;;0.10;99.90;;;;;;5109976;28;20218;-80
2021/01/30 05:32:54;;;;;;;13.37;9.23;;;0.10;99.90;;;;;;5110195;28;20196;-80
2021/01/30 05:35:27;;;;;;;13.13;9.37;;;0.10;99.90;;;;;;5110250;28;20201;-80
2021/01/30 05:38:02;;;;;;;13.03;9.57;;;0.10;99.90;;;;;;5109956;28;20580;-80
2021/01/30 05:40:35;;;;;;;10.50;8.33;;;0.10;99.90;;;;;;5110115;28;20197;-80
2021/01/30 05:43:12;;;;;;;13.37;9.70;;;0.10;99.90;;;;;;5110059;27;20189;-80
2021/01/30 05:45:47;;;;;;;12.50;9.10;;;0.10;99.90;;;;;;5109726;28;20186;-80
2021/01/30 05:48:22;;;;;;;12.33;9.43;;;0.10;99.90;;;;;;5109795;28;20281;-80
2021/01/30 05:50:54;;;;;;;13.63;9.57;;;0.10;99.90;;;;;;5109906;28;20197;-81
2021/01/30 05:53:23;;;;;;;11.60;9.20;;;0.10;99.90;;;;;;5109713;28;20194;-81
2021/01/30 05:55:50;;;;;;;11.27;8.83;;;0.10;99.90;;;;;;5108892;28;20246;-81
2021/01/30 05:58:19;;;;;;;13.00;9.47;;;0.10;99.90;;;;;;5109375;28;20545;-81
2021/01/30 06:00:45;;;;;;;14.97;9.87;;;0.10;99.90;;;;;;5109245;28;20879;-78
2021/01/30 06:03:13;;;;;;;15.83;10.23;;;0.10;99.90;;;;;;5109629;28;20213;-83
2021/01/30 06:05:42;;;;;;;15.03;9.73;;;0.10;99.90;;;;;;5102706;27;20202;-78
2021/01/30 06:08:19;;;;;;;12.20;9.40;;;0.10;99.90;;;;;;5091761;28;20202;-80
2021/01/30 06:10:48;;;;;;;15.23;10.37;;;0.10;99.90;;;;;;5104983;28;20707;-80
2021/01/30 06:13:18;;;;;;;13.50;9.83;;;0.20;99.90;;;;;;5103884;27;20201;-81
2021/01/30 06:15:47;;;;;;;17.83;11.00;;;0.20;99.90;;;;;;5103490;28;20642;-80
2021/01/30 06:18:18;;;;;;;14.60;10.33;;;0.20;99.90;;;;;;5094729;28;20195;-78
2021/01/30 06:20:57;;;;;;;18.57;12.87;;;0.20;99.90;;;;;;5109036;28;20217;-80
2021/01/30 06:23:24;;;;;;;21.00;13.17;;;0.20;99.90;;;;;;5109037;28;20652;-81
2021/01/30 06:25:50;;;;;;;21.10;13.37;;;0.10;99.90;;;;;;5100974;28;20566;-80
2021/01/30 06:28:27;;;;;;;23.87;14.93;;;0.10;99.90;;;;;;5088592;28;20673;-80
2021/01/30 06:30:56;;;;;;;26.60;15.10;;;0.10;99.90;;;;;;5088884;28;20541;-80
2021/01/30 06:33:27;;;;;;;24.57;15.57;;;0.10;99.90;;;;;;5088741;28;20584;-80
2021/01/30 06:35:56;;;;;;;17.37;12.67;;;0.10;99.90;;;;;;5088350;28;20594;-80
2021/01/30 06:38:32;;;;;;;16.83;11.37;;;0.10;99.90;;;;;;5088904;28;20233;-80
2021/01/30 06:41:02;;;;;;;13.40;10.10;;;0.10;99.90;;;;;;5089149;28;20212;-80
2021/01/30 06:43:32;;;;;;;17.37;10.83;;;0.10;99.90;;;;;;5088493;28;20194;-80
2021/01/30 06:46:07;;;;;;;13.83;9.80;;;0.10;99.90;;;;;;5088685;28;20538;-80
2021/01/30 06:48:37;;;;;;;13.00;9.33;;;0.10;99.90;;;;;;5088815;28;20194;-83
2021/01/30 06:51:24;;;;;;;12.03;8.93;;;0.10;99.90;;;;;;5096648;28;20679;-79
2021/01/30 06:53:52;;;;;;;12.13;8.63;;;0.10;99.90;;;;;;5102997;28;20198;-82
2021/01/30 06:56:22;;;;;;;12.73;8.93;;;0.10;99.90;;;;;;5095480;28;20282;-75
2021/01/30 06:58:50;;;;;;;10.67;8.30;;;0.20;99.90;;;;;;5112095;28;20237;-75
2021/01/30 07:01:20;;;;;;;10.97;8.17;;;0.20;99.90;;;;;;5116917;27;20219;-75
2021/01/30 07:04:03;;;;;;;11.17;8.70;;;0.20;99.90;;;;;;5121813;28;20210;-75
2021/01/30 07:06:36;;;;;;;14.43;8.17;;;0.20;99.90;;;;;;5088321;28;20251;-75
2021/01/30 07:09:15;;;;;;;8.93;7.50;;;0.20;99.90;;;;;;5116680;28;20209;-75
2021/01/30 07:11:59;;;;;;;10.63;7.57;;;0.20;99.90;;;;;;5103084;28;20194;-75
2021/01/30 07:14:46;;;;;;;9.37;7.27;;;0.20;99.90;;;;;;5116816;28;20384;-75
2021/01/30 07:17:19;;;;;;;11.27;7.57;;;0.30;99.90;;;;;;5102648;27;20211;-75
2021/01/30 07:19:57;;;;;;;11.57;7.43;;;0.20;99.90;;;;;;5096864;28;20202;-75
2021/01/30 07:22:30;;;;;;;9.17;6.63;;;0.30;99.90;;;;;;5115748;27;20262;-76
2021/01/30 07:25:03;;;;;;;9.93;6.77;;;0.30;99.90;;;;;;5111149;28;20190;-76
2021/01/30 07:27:36;;;;;;;10.70;7.10;;;0.30;99.90;;;;;;5107268;27;20683;-76
2021/01/30 07:30:06;;;;;;;8.43;6.70;;;0.30;99.90;;;;;;5116180;27;20202;-76
2021/01/30 07:32:36;;;;;;;9.70;6.90;;;0.30;99.90;;;;;;5112103;28;20194;-76
2021/01/30 07:35:21;;;;;;;7.10;6.40;;;0.30;99.90;;;;;;5111592;27;20198;-76
2021/01/30 07:37:56;;;;;;;5.93;5.43;;;0.30;99.90;;;;;;5125394;27;20201;-76
2021/01/30 07:40:36;;;;;;;6.77;6.17;;;0.30;99.90;;;;;;5111804;27;20197;-76
2021/01/30 07:43:11;;;;;;;7.10;6.40;;;0.40;99.90;;;;;;5128673;27;20193;-76
2021/01/30 07:45:42;;;;;;;7.43;6.23;;;0.40;99.90;;;;;;5131789;27;20659;-76
2021/01/30 07:48:15;;;;;;;6.43;5.83;;;0.40;99.90;;;;;;5128309;27;20201;-76
2021/01/30 07:50:45;;;;;;;6.47;5.67;;;0.50;99.90;;;;;;5111365;28;20225;-76
2021/01/30 07:53:15;;;;;;;8.93;6.20;;;0.50;99.90;;;;;;5111286;28;20198;-75
2021/01/30 07:56:00;;;;;;;7.30;6.07;;;0.50;99.90;;;;;;5112999;27;20202;-76
2021/01/30 07:58:36;;;;;;;6.50;5.87;;;0.50;99.90;;;;;;5124065;27;20239;-76
2021/01/30 08:01:13;;;;;;;6.33;5.67;;;0.50;99.90;;;;;;5130655;27;20703;-76
2021/01/30 08:03:59;;;;;;;10.90;6.30;;;0.50;99.90;;;;;;5128144;27;20186;-76
2021/01/30 08:06:39;;;;;;;7.00;6.17;;;0.50;99.90;;;;;;5095213;27;20205;-76
2021/01/30 08:09:20;;;;;;;10.20;6.07;;;0.50;99.90;;;;;;5100951;28;20214;-76
2021/01/30 08:11:53;;;;;;;6.23;5.63;;;0.50;99.90;;;;;;5109679;28;20717;-76
2021/01/30 08:14:36;;;;;;;7.17;6.40;;;0.50;99.90;;;;;;5111030;28;20194;-76
2021/01/30 08:17:09;;;;;;;6.63;5.93;;;0.40;99.90;;;;;;5110775;28;20198;-76
2021/01/30 08:19:44;;;;;;;6.77;5.60;;;0.50;99.90;;;;;;5110425;28;20216;-77
2021/01/30 08:22:20;;;;;;;7.27;6.30;;;0.50;99.90;;;;;;5106026;27;20194;-76
2021/01/30 08:24:53;;;;;;;6.93;5.57;;;0.50;99.90;;;;;;5104429;28;20202;-77
2021/01/30 08:27:25;;;;;;;7.13;5.77;;;0.50;99.90;;;;;;5110951;27;20194;-76
2021/01/30 08:29:55;;;;;;;7.07;6.37;;;0.60;99.90;;;;;;5110223;28;20701;-76
2021/01/30 08:32:35;;;;;;;6.67;6.07;;;0.70;99.90;;;;;;5110643;28;20604;-76
2021/01/30 08:35:41;;;;;;;7.30;6.50;;;0.70;99.90;;;;;;5110734;28;20572;-76
2021/01/30 08:38:09;;;;;;;6.90;6.23;;;0.70;99.90;;;;;;5124706;27;20189;-76
2021/01/30 08:40:49;;;;;;;6.97;5.93;;;0.80;99.90;;;;;;5128263;27;20202;-75
2021/01/30 08:43:22;;;;;;;7.90;6.03;;;0.80;99.90;;;;;;5131031;27;20209;-77
2021/01/30 08:45:49;;;;;;;7.17;5.93;;;0.80;99.90;;;;;;5126044;27;20198;-76
2021/01/30 08:48:27;;;;;;;7.93;5.93;;;0.80;99.90;;;;;;5130958;27;20197;-77
2021/01/30 08:50:55;;;;;;;7.00;6.30;;;0.90;99.90;;;;;;5130685;27;20638;-76
2021/01/30 08:53:31;;;;;;;6.70;6.10;;;0.90;99.90;;;;;;5130815;27;20250;-77
2021/01/30 08:55:59;;;;;;;6.03;5.43;;;0.80;99.90;;;;;;5130744;27;20209;-76
2021/01/30 08:58:48;;;;;;;6.40;5.80;;;0.70;99.90;;;;;;5130383;27;20995;-76
2021/01/30 09:01:43;;;;;;;8.20;6.67;;;0.60;99.90;;;;;;5130714;27;20590;-76
2021/01/30 09:04:38;;;;;;;6.90;6.10;;;0.60;99.90;;;;;;5123101;27;20198;-76
2021/01/30 09:07:05;;;;;;;7.47;6.53;;;0.60;99.90;;;;;;5128844;27;20216;-77
2021/01/30 09:09:31;;;;;;;8.63;6.93;;;0.60;99.90;;;;;;5130272;27;20302;-76
2021/01/30 09:11:59;;;;;;;8.50;6.50;;;0.60;99.90;;;;;;5130331;27;20571;-77
2021/01/30 09:14:41;;;;;;;9.77;7.03;;;0.70;99.90;;;;;;5130289;27;20301;-76
2021/01/30 09:17:42;;;;;;;9.77;6.97;;;0.60;99.90;;;;;;5124254;27;20246;-76
2021/01/30 09:20:30;;;;;;;7.77;6.93;;;0.60;99.90;;;;;;5097707;28;20190;-76
2021/01/30 09:23:05;;;;;;;7.20;6.50;;;0.70;99.90;;;;;;5088753;28;20195;-75
2021/01/30 09:25:48;;;;;;;7.47;6.50;;;0.70;99.90;;;;;;5089293;28;20199;-73
2021/01/30 09:28:19;;;;;;;8.10;6.60;;;0.70;99.90;;;;;;5094628;27;20202;-72
2021/01/30 09:30:55;;;;;;;7.40;6.70;;;0.70;99.90;;;;;;5095019;28;20230;-72
2021/01/30 09:33:26;;;;;;;8.73;6.50;;;0.70;99.90;;;;;;5100811;27;20874;-72
2021/01/30 09:36:09;;;;;;;9.37;6.43;;;0.80;99.90;;;;;;5088454;28;20186;-72
2021/01/30 09:38:39;;;;;;;7.93;7.03;;;0.90;99.90;;;;;;5088456;28;20210;-72
2021/01/30 09:41:13;;;;;;;6.93;6.23;;;0.90;99.90;;;;;;5087439;28;20230;-72
2021/01/30 09:43:41;;;;;;;7.03;6.43;;;1.00;99.90;;;;;;5088138;28;20225;-72
2021/01/30 09:46:13;;;;;;;7.37;6.23;;;1.00;99.90;;;;;;5087964;28;20206;-71
2021/01/30 09:48:41;;;;;;;7.10;6.30;;;1.00;99.90;;;;;;5087805;28;20693;-72
2021/01/30 09:51:09;;;;;;;6.53;5.70;;;1.10;99.90;;;;;;5088364;28;20273;-72
2021/01/30 09:53:40;;;;;;;7.00;6.20;;;1.20;99.90;;;;;;5089418;28;20217;-72
2021/01/30 09:56:08;;;;;;;7.10;6.13;;;1.20;99.90;;;;;;5089312;28;20202;-71
2021/01/30 09:58:37;;;;;;;6.57;5.97;;;1.20;99.90;;;;;;5088758;28;20238;-72
2021/01/30 10:01:11;;;;;;;6.63;5.97;;;1.20;99.90;;;;;;5099632;28;20253;-72
2021/01/30 10:03:40;;;;;;;5.67;5.17;;;1.30;99.90;;;;;;5109164;28;20190;-71
2021/01/30 10:06:15;;;;;;;5.43;4.67;;;1.40;99.90;;;;;;5109066;28;20569;-72
2021/01/30 10:08:42;;;;;;;7.00;4.67;;;1.40;99.90;;;;;;5109072;28;20254;-72
2021/01/30 10:11:12;;;;;;;6.57;5.43;;;1.40;99.90;;;;;;5109146;28;21099;-71
2021/01/30 10:13:41;;;;;;;7.53;5.80;;;1.50;99.90;;;;;;5109193;28;20220;-72
2021/01/30 10:16:15;;;;;;;5.67;5.10;;;1.60;99.90;;;;;;5108940;28;20217;-72
2021/01/30 10:18:45;;;;;;;5.50;5.00;;;1.60;99.90;;;;;;5108820;28;20197;-71
2021/01/30 10:21:14;;;;;;;5.60;5.10;;;1.60;99.90;;;;;;5109105;28;20202;-72
2021/01/30 10:23:44;;;;;;;5.63;5.07;;;1.60;99.90;;;;;;5108792;28;20251;-71
2021/01/30 10:26:16;;;;;;;5.13;4.73;;;1.60;99.90;;;;;;5108784;28;20196;-71
2021/01/30 10:28:50;;;;;;;5.70;5.20;;;1.60;99.90;;;;;;5108434;28;20198;-72
2021/01/30 10:31:25;;;;;;;5.03;4.63;;;1.60;99.90;;;;;;5108799;28;20222;-71
2021/01/30 10:33:56;;;;;;;4.77;4.37;;;1.70;99.90;;;;;;5108658;28;20190;-72
2021/01/30 10:36:27;;;;;;;5.17;4.67;;;1.70;99.90;;;;;;5108621;28;20218;-72
2021/01/30 10:38:55;;;;;;;5.27;4.77;;;1.70;99.90;;;;;;5108195;28;20720;-71
2021/01/30 10:41:26;;;;;;;4.10;3.80;;;1.70;99.90;;;;;;5108682;28;20629;-72
2021/01/30 10:44:02;;;;;;;4.83;4.37;;;1.70;99.90;;;;;;5108467;28;20190;-72
2021/01/30 10:46:37;;;;;;;6.23;4.87;;;1.70;99.90;;;;;;5108557;28;20278;-72
2021/01/30 10:49:06;;;;;;;5.57;4.40;;;1.70;99.90;;;;;;5108061;28;20637;-72
2021/01/30 10:51:34;;;;;;;4.50;4.03;;;1.70;99.90;;;;;;5108405;28;20217;-72
2021/01/30 10:54:17;;;;;;;4.67;4.27;;;1.70;99.90;;;;;;5110276;28;20680;-72
2021/01/30 10:56:59;;;;;;;4.40;4.10;;;1.70;99.90;;;;;;5112603;28;20652;-72
2021/01/30 10:59:25;;;;;;;5.13;4.63;;;1.70;99.90;;;;;;5112258;28;20242;-72
2021/01/30 11:01:53;;;;;;;4.97;4.53;;;1.70;99.90;;;;;;5112276;28;20230;-72
2021/01/30 11:04:25;;;;;;;5.00;4.50;;;1.70;99.90;;;;;;5112580;28;20209;-72
2021/01/30 11:07:00;;;;;;;5.33;4.83;;;1.80;99.90;;;;;;5099321;28;20195;-73
2021/01/30 11:09:30;;;;;;;5.53;4.90;;;1.80;99.90;;;;;;5106407;28;20627;-72
2021/01/30 11:12:10;;;;;;;4.60;4.20;;;1.80;99.90;;;;;;5105886;28;20652;-72
2021/01/30 11:14:38;;;;;;;4.27;3.87;;;1.80;99.90;;;;;;5092091;28;20194;-72
2021/01/30 11:17:17;;;;;;;4.07;3.77;;;1.80;99.90;;;;;;5091741;28;20206;-72
2021/01/30 11:19:44;;;;;;;4.20;3.87;;;1.80;99.90;;;;;;5091751;28;20663;-72
2021/01/30 11:22:17;;;;;;;4.30;4.00;;;1.80;99.90;;;;;;5092108;28;20213;-72
2021/01/30 11:24:47;;;;;;;4.00;3.70;;;1.80;99.90;;;;;;5097284;27;20976;-72
2021/01/30 11:27:29;;;;;;;3.70;3.40;;;1.80;99.90;;;;;;5102875;27;20572;-72
2021/01/30 11:29:55;;;;;;;4.83;4.00;;;1.90;99.90;;;;;;5112105;27;20217;-72
2021/01/30 11:32:25;;;;;;;3.87;3.57;;;1.90;99.90;;;;;;5115004;27;20249;-72
2021/01/30 11:34:56;;;;;;;6.03;3.87;;;2.00;99.90;;;;;;5124495;27;20194;-72
2021/01/30 11:37:23;;;;;;;4.17;3.77;;;2.10;99.90;;;;;;5123873;27;20201;-72
2021/01/30 11:39:50;;;;;;;3.60;3.30;;;2.10;99.90;;;;;;5116010;27;20210;-72
2021/01/30 11:42:16;;;;;;;3.00;2.80;;;2.20;99.90;;;;;;5113823;27;20664;-72
2021/01/30 11:44:43;;;;;;;3.80;3.10;;;2.20;99.90;;;;;;5125824;27;20529;-72
2021/01/30 11:47:09;;;;;;;3.33;3.13;;;2.10;99.90;;;;;;5111220;27;20664;-72
2021/01/30 11:49:36;;;;;;;3.00;2.80;;;2.10;99.90;;;;;;5111509;28;20230;-72
2021/01/30 11:52:03;;;;;;;3.00;2.80;;;2.10;99.90;;;;;;5112219;27;20206;-72
2021/01/30 11:54:29;;;;;;;4.43;3.03;;;2.20;99.90;;;;;;5127672;27;20585;-72
2021/01/30 11:56:56;;;;;;;5.63;2.90;;;2.20;99.90;;;;;;5110438;27;20201;-72
2021/01/30 11:59:22;;;;;;;3.30;2.97;;;2.40;99.90;;;;;;5119443;27;20238;-72
2021/01/30 12:01:48;;;;;;;2.77;2.57;;;2.70;99.90;;;;;;5116002;27;20266;-73
2021/01/30 12:04:15;;;;;;;3.27;2.67;;;3.10;99.90;;;;;;5120719;27;20218;-72
2021/01/30 12:06:42;;;;;;;2.70;2.50;;;3.40;99.90;;;;;;5125772;27;20601;-72
2021/01/30 12:09:08;;;;;;;2.33;2.23;;;3.50;99.90;;;;;;5114554;27;20206;-72
2021/01/30 12:11:34;;;;;;;3.33;2.40;;;3.40;99.90;;;;;;5127224;27;20198;-72
2021/01/30 12:14:00;;;;;;;2.43;2.23;;;3.30;99.90;;;;;;5108881;27;20228;-72
2021/01/30 12:16:27;;;;;;;2.30;2.20;;;3.60;99.90;;;;;;5122364;27;20664;-72
2021/01/30 12:18:54;;;;;;;2.37;2.27;;;3.70;99.90;;;;;;5113204;27;20226;-72
2021/01/30 12:21:20;;;;;;;3.00;2.80;;;3.90;99.90;;;;;;5109487;27;20626;-72
2021/01/30 12:23:47;;;;;;;2.80;2.60;;;4.10;99.90;;;;;;5104791;27;20206;-72
2021/01/30 12:26:20;;;;;;;1.60;1.60;;;4.10;99.90;;;;;;5109660;27;20213;-72
2021/01/30 12:28:46;;;;;;;2.53;2.00;;;4.10;99.90;;;;;;5093351;28;20210;-72
2021/01/30 12:31:12;;;;;;;2.20;2.10;;;4.20;99.90;;;;;;5104237;28;20238;-72
2021/01/30 12:33:38;;;;;;;2.00;1.90;;;4.40;99.90;;;;;;5090316;28;20214;-72
2021/01/30 12:36:05;;;;;;;2.50;1.90;;;4.50;99.90;;;;;;5089719;28;20521;-72
2021/01/30 12:38:33;;;;;;;3.00;1.83;;;4.60;99.90;;;;;;5090261;28;20210;-72
2021/01/30 12:41:00;;;;;;;2.30;2.10;;;4.80;99.90;;;;;;5090051;28;20218;-72
2021/01/30 12:43:27;;;;;;;2.40;2.20;;;4.90;99.90;;;;;;5090087;28;20214;-72
2021/01/30 12:45:53;;;;;;;2.30;2.10;;;4.70;99.90;;;;;;5089324;28;20755;-72
2021/01/30 12:48:20;;;;;;;2.47;2.33;;;4.50;99.90;;;;;;5089407;28;20685;-72
2021/01/30 12:50:47;;;;;;;2.27;2.07;;;4.20;99.90;;;;;;5102014;27;20753;-72
2021/01/30 12:53:14;;;;;;;2.43;2.33;;;4.10;99.90;;;;;;5109818;28;20571;-72
2021/01/30 12:55:40;;;;;;;2.23;2.03;;;4.20;99.90;;;;;;5110153;28;20206;-72
2021/01/30 12:58:16;;;;;;;4.93;2.30;;;4.40;99.90;;;;;;5109431;27;20238;-72
2021/01/30 13:00:43;;;;;;;2.43;2.23;;;4.60;99.90;;;;;;5110130;27;20570;-72
2021/01/30 13:03:09;;;;;;;2.87;2.30;;;4.80;99.90;;;;;;5102569;28;20205;-72
2021/01/30 13:05:35;;;;;;;2.80;2.60;;;5.00;99.90;;;;;;5105432;28;20208;-72
2021/01/30 13:08:02;;;;;;;2.47;2.37;;;5.30;99.90;;;;;;5098468;28;20786;-72
2021/01/30 13:10:28;;;;;;;2.93;2.50;;;5.40;99.90;;;;;;5099218;28;20230;-73
2021/01/30 13:12:54;;;;;;;2.53;2.33;;;5.50;99.90;;;;;;5103174;27;20203;-72
2021/01/30 13:15:22;;;;;;;2.00;1.90;;;5.60;99.90;;;;;;5099746;28;20205;-72
2021/01/30 13:17:48;;;;;;;1.90;1.80;;;5.60;99.90;;;;;;5098430;28;20210;-72